WIF557 ENAT-ENTC

Flight info

Callsign WIF557
Flight time 0h 30m
Altitude 16000
Route NATED DCT KIIKA
Aircraft DH8D/M-SDE2E3FGRY/H

Departure

Time 2026-05-06 09:09
Airport Alta Airport (ENAT)

Arrival

Time 2026-05-06 09:39
Airport Tromsø Airport (ENTC)
Time Latitude Longitude Altitude Speed Heading
2026-05-06 08:42 69.97797 23.34918 10 ft 0 kts 210°
2026-05-06 09:02 69.97804 23.34930 9 ft 2 kts 212°
2026-05-06 09:02 69.97817 23.34953 8 ft 2 kts 211°
2026-05-06 09:02 69.97828 23.34972 7 ft 0 kts 211°
2026-05-06 09:02 69.97830 23.34977 6 ft 0 kts 210°
2026-05-06 09:05 69.97830 23.34976 10 ft 0 kts 213°
2026-05-06 09:06 69.97834 23.34947 10 ft 4 kts 340°
2026-05-06 09:06 69.97890 23.34908 10 ft 10 kts 322°
2026-05-06 09:06 69.97937 23.34703 11 ft 12 kts 301°
2026-05-06 09:06 69.97981 23.34492 11 ft 12 kts 301°
2026-05-06 09:07 69.98042 23.34305 11 ft 13 kts 319°
2026-05-06 09:07 69.98108 23.34131 11 ft 11 kts 317°
2026-05-06 09:07 69.98164 23.33982 11 ft 10 kts 317°
2026-05-06 09:07 69.98220 23.33902 11 ft 9 kts 21°
2026-05-06 09:08 69.98260 23.34021 11 ft 7 kts 95°
2026-05-06 09:08 69.98245 23.34103 11 ft 8 kts 120°
2026-05-06 09:08 69.98070 23.34945 10 ft 95 kts 120°
2026-05-06 09:08 69.97608 23.37149 50 ft 150 kts 121°
2026-05-06 09:09 69.96992 23.39779 587 ft 159 kts 120°
2026-05-06 09:09 69.96755 23.42840 1279 ft 162 kts 86°
2026-05-06 09:09 69.97118 23.45908 1918 ft 168 kts 54°
2026-05-06 09:09 69.97974 23.48124 2662 ft 170 kts 32°
2026-05-06 09:10 69.99045 23.49424 3397 ft 173 kts
2026-05-06 09:10 70.00221 23.48665 3877 ft 185 kts 327°
2026-05-06 09:10 70.01125 23.45906 4397 ft 190 kts 307°
2026-05-06 09:10 70.01929 23.42850 5001 ft 192 kts 304°
2026-05-06 09:11 70.02324 23.39188 5563 ft 195 kts 268°
2026-05-06 09:11 70.02060 23.35361 6167 ft 196 kts 255°
2026-05-06 09:11 70.01624 23.31559 6804 ft 197 kts 253°
2026-05-06 09:11 70.01253 23.27718 7438 ft 198 kts 256°
2026-05-06 09:12 70.00899 23.23883 8066 ft 199 kts 256°
2026-05-06 09:12 70.00536 23.20029 8703 ft 198 kts 256°
2026-05-06 09:12 70.00169 23.16190 9313 ft 199 kts 256°
2026-05-06 09:12 69.99795 23.12307 9939 ft 200 kts 257°
2026-05-06 09:13 69.99418 23.08438 10541 ft 202 kts 257°
2026-05-06 09:13 69.99035 23.04522 11191 ft 203 kts 257°
2026-05-06 09:13 69.98646 23.00574 11785 ft 203 kts 256°
2026-05-06 09:13 69.98254 22.96608 12417 ft 205 kts 256°
2026-05-06 09:14 69.97865 22.92688 13053 ft 205 kts 257°
2026-05-06 09:14 69.97464 22.88680 13711 ft 205 kts 257°
2026-05-06 09:14 69.97070 22.84739 14351 ft 205 kts 257°
2026-05-06 09:14 69.96669 22.80752 14933 ft 206 kts 257°
2026-05-06 09:15 69.96265 22.76738 15431 ft 211 kts 256°
2026-05-06 09:15 69.95843 22.72548 15649 ft 227 kts 256°
2026-05-06 09:15 69.95372 22.67900 15729 ft 242 kts 256°
2026-05-06 09:15 69.94896 22.63299 15729 ft 237 kts 256°
2026-05-06 09:16 69.94421 22.58736 15703 ft 232 kts 256°
2026-05-06 09:16 69.93958 22.54283 15697 ft 227 kts 256°
2026-05-06 09:16 69.93512 22.49989 15685 ft 221 kts 256°
2026-05-06 09:16 69.93073 22.45761 15693 ft 215 kts 256°
2026-05-06 09:17 69.92645 22.41626 15683 ft 210 kts 256°
2026-05-06 09:17 69.92232 22.37649 15686 ft 204 kts 256°
2026-05-06 09:17 69.91827 22.33765 15691 ft 198 kts 255°
2026-05-06 09:17 69.91431 22.29963 15689 ft 192 kts 255°
2026-05-06 09:18 69.91045 22.26197 15712 ft 200 kts 256°
2026-05-06 09:18 69.90638 22.22248 15729 ft 211 kts 255°
2026-05-06 09:18 69.90201 22.18034 15742 ft 223 kts 255°
2026-05-06 09:18 69.89738 22.13611 15760 ft 234 kts 255°
2026-05-06 09:19 69.89259 22.09044 15770 ft 244 kts 255°
2026-05-06 09:19 69.88725 22.04217 15774 ft 254 kts 252°
2026-05-06 09:19 69.88116 21.99356 15789 ft 263 kts 251°
2026-05-06 09:19 69.87472 21.94301 15790 ft 270 kts 251°
2026-05-06 09:20 69.86819 21.89170 15794 ft 276 kts 251°
2026-05-06 09:20 69.86147 21.83897 15795 ft 282 kts 251°
2026-05-06 09:20 69.85462 21.78517 15786 ft 286 kts 251°
2026-05-06 09:20 69.84775 21.73126 15758 ft 290 kts 251°
2026-05-06 09:21 69.84070 21.67616 15762 ft 292 kts 252°
2026-05-06 09:21 69.83362 21.62069 15758 ft 293 kts 251°
2026-05-06 09:21 69.82657 21.56577 15739 ft 296 kts 251°
2026-05-06 09:21 69.81936 21.50969 15760 ft 295 kts 251°
2026-05-06 09:22 69.81220 21.45455 15764 ft 296 kts 251°
2026-05-06 09:22 69.80498 21.39860 15748 ft 297 kts 251°
2026-05-06 09:22 69.79765 21.34238 15748 ft 297 kts 250°
2026-05-06 09:22 69.79042 21.28651 15793 ft 297 kts 250°
2026-05-06 09:23 69.78321 21.23124 15773 ft 299 kts 250°
2026-05-06 09:23 69.77585 21.17488 15813 ft 297 kts 250°
2026-05-06 09:23 69.76858 21.11951 15819 ft 296 kts 249°
2026-05-06 09:23 69.76135 21.06442 15796 ft 297 kts 250°
2026-05-06 09:24 69.75467 21.00806 15795 ft 295 kts 257°
2026-05-06 09:24 69.75598 20.95014 15822 ft 289 kts 287°
2026-05-06 09:24 69.76355 20.89759 15798 ft 279 kts 292°
2026-05-06 09:24 69.77128 20.84746 15729 ft 272 kts 293°
2026-05-06 09:25 69.77898 20.79867 15607 ft 267 kts 292°
2026-05-06 09:25 69.78652 20.75051 15504 ft 261 kts 292°
2026-05-06 09:25 69.79400 20.70265 15437 ft 256 kts 292°
2026-05-06 09:25 69.80119 20.65648 15354 ft 253 kts 293°
2026-05-06 09:26 69.80847 20.60964 15068 ft 258 kts 293°
2026-05-06 09:26 69.81594 20.56160 14598 ft 268 kts 292°
2026-05-06 09:26 69.82363 20.51188 14061 ft 277 kts 293°
2026-05-06 09:26 69.83157 20.46050 13449 ft 285 kts 292°
2026-05-06 09:27 69.83969 20.40789 12789 ft 294 kts 293°
2026-05-06 09:27 69.84802 20.35376 12130 ft 299 kts 294°
2026-05-06 09:27 69.85648 20.29844 11438 ft 298 kts 293°
2026-05-06 09:27 69.86478 20.24400 10766 ft 296 kts 294°
2026-05-06 09:28 69.87302 20.18980 10118 ft 294 kts 294°
2026-05-06 09:28 69.88110 20.13648 9489 ft 289 kts 294°
2026-05-06 09:28 69.88908 20.08362 8855 ft 284 kts 294°
2026-05-06 09:28 69.89685 20.03212 8251 ft 278 kts 294°
2026-05-06 09:29 69.90234 19.98035 7870 ft 264 kts 279°
2026-05-06 09:29 69.90391 19.92832 7583 ft 249 kts 275°
2026-05-06 09:29 69.90503 19.88005 7344 ft 235 kts 275°
2026-05-06 09:29 69.90572 19.83387 7117 ft 220 kts 272°
2026-05-06 09:30 69.90597 19.79031 6914 ft 216 kts 272°
2026-05-06 09:30 69.90618 19.74734 6709 ft 214 kts 272°
2026-05-06 09:30 69.90635 19.70407 6502 ft 212 kts 272°
2026-05-06 09:30 69.90650 19.66147 6301 ft 211 kts 272°
2026-05-06 09:31 69.90664 19.61933 6101 ft 209 kts 272°
2026-05-06 09:31 69.90675 19.57690 5891 ft 208 kts 272°
2026-05-06 09:31 69.90682 19.53541 5695 ft 207 kts 272°
2026-05-06 09:31 69.90688 19.49366 5489 ft 203 kts 272°
2026-05-06 09:32 69.90688 19.45345 5291 ft 198 kts 272°
2026-05-06 09:32 69.90685 19.41386 5103 ft 193 kts 272°
2026-05-06 09:32 69.90680 19.37520 4943 ft 185 kts 272°
2026-05-06 09:32 69.90670 19.34098 5288 ft 164 kts 272°
2026-05-06 09:33 69.90672 19.30693 5614 ft 183 kts 272°
2026-05-06 09:33 69.90681 19.26522 5393 ft 229 kts 271°
2026-05-06 09:33 69.90504 19.21859 4998 ft 235 kts 257°
2026-05-06 09:33 69.90022 19.17431 4846 ft 217 kts 251°
2026-05-06 09:34 69.89533 19.13446 4896 ft 209 kts 251°
2026-05-06 09:34 69.88991 19.09753 5260 ft 181 kts 234°
2026-05-06 09:34 69.88075 19.07573 5752 ft 164 kts 211°
2026-05-06 09:34 69.87106 19.05914 5896 ft 165 kts 211°
2026-05-06 09:35 69.86066 19.04243 5466 ft 179 kts 206°
2026-05-06 09:35 69.84883 19.03062 4989 ft 187 kts 194°
2026-05-06 09:35 69.83607 19.02172 4530 ft 190 kts 193°
2026-05-06 09:35 69.82341 19.01316 4038 ft 188 kts 192°
2026-05-06 09:36 69.81072 19.00459 3515 ft 185 kts 192°
2026-05-06 09:36 69.79837 18.99628 3014 ft 182 kts 192°
2026-05-06 09:36 69.78645 18.98823 2688 ft 176 kts 192°
2026-05-06 09:36 69.77474 18.98030 2301 ft 173 kts 192°
2026-05-06 09:37 69.76306 18.97245 1965 ft 170 kts 192°
2026-05-06 09:37 69.75190 18.96495 1636 ft 163 kts 192°
2026-05-06 09:37 69.74113 18.95772 1335 ft 155 kts 192°
2026-05-06 09:37 69.73092 18.95089 1055 ft 146 kts 192°
2026-05-06 09:38 69.72139 18.94426 755 ft 141 kts 193°
2026-05-06 09:38 69.71188 18.93770 488 ft 140 kts 191°
2026-05-06 09:38 69.70239 18.93154 273 ft 139 kts 191°
2026-05-06 09:38 69.69315 18.92550 76 ft 135 kts 193°
2026-05-06 09:39 69.68446 18.91966 8 ft 110 kts 192°
2026-05-06 09:39 69.67865 18.91587 12 ft 68 kts 195°
2026-05-06 09:39 69.67564 18.91379 13 ft 19 kts 192°
2026-05-06 09:39 69.67498 18.91347 13 ft 11 kts 266°
2026-05-06 09:40 69.67570 18.91379 13 ft 11 kts 15°
2026-05-06 09:40 69.67621 18.91292 12 ft 9 kts 284°
2026-05-06 09:40 69.67693 18.91077 11 ft 10 kts 13°
2026-05-06 09:41 69.67745 18.91044 11 ft 7 kts 289°
2026-05-06 09:41 69.67758 18.90901 11 ft 7 kts 283°
2026-05-06 09:41 69.67767 18.90796 11 ft 3 kts 283°
2026-05-06 09:41 69.67768 18.90787 10 ft 0 kts 283°